Time;durP1;ratioP1;P1;durP2;ratioP2;P2;SDS_P1;SDS_P2;PMS_P1;PMS_P2;Temp;Humidity;BMP_temperature;BMP_pressure;BME280_temperature;BME280_humidity;BME280_pressure;Samples;Min_cycle;Max_cycle;Signal;HPM_P1;HPM_P2
2023/07/07 00:00:41;;;;;;;11.03;4.33;;;;;;;15.43;83.02;101714.97;5327254;28;20458;-72
2023/07/07 00:03:13;;;;;;;8.87;4.70;;;;;;;15.38;83.04;101704.53;5327233;28;20118;-74
2023/07/07 00:05:45;;;;;;;9.00;4.40;;;;;;;15.29;83.27;101717.81;5326857;28;20082;-73
2023/07/07 00:08:17;;;;;;;9.02;4.78;;;;;;;15.25;83.70;101711.78;5327349;28;20110;-73
2023/07/07 00:10:50;;;;;;;6.40;4.10;;;;;;;15.15;83.40;101715.47;5327311;28;20118;-74
2023/07/07 00:13:21;;;;;;;5.78;3.90;;;;;;;15.12;83.78;101711.13;5326982;28;20024;-74
2023/07/07 00:16:00;;;;;;;9.77;4.40;;;;;;;15.15;84.24;101720.72;5325787;28;20039;-74
2023/07/07 00:18:32;;;;;;;8.80;4.22;;;;;;;15.09;84.48;101720.81;5326626;28;20051;-74
2023/07/07 00:21:04;;;;;;;7.65;4.78;;;;;;;14.97;84.05;101726.25;5326471;28;20059;-74
2023/07/07 00:23:38;;;;;;;5.83;3.73;;;;;;;14.92;84.64;101718.44;5326902;28;20453;-74
2023/07/07 00:26:10;;;;;;;8.43;3.90;;;;;;;14.92;85.28;101719.34;5326734;28;20024;-75
2023/07/07 00:28:41;;;;;;;9.10;3.97;;;;;;;14.81;85.03;101726.50;5326821;28;20119;-74
2023/07/07 00:31:13;;;;;;;7.30;4.70;;;;;;;14.89;85.43;101718.50;5326648;28;20039;-74
2023/07/07 00:33:44;;;;;;;7.47;4.20;;;;;;;14.84;85.72;101717.69;5326203;28;20496;-74
2023/07/07 00:36:16;;;;;;;9.23;5.00;;;;;;;14.77;85.38;101720.41;5325803;28;20402;-73
2023/07/07 00:38:47;;;;;;;8.90;4.37;;;;;;;14.71;85.85;101723.13;5326646;28;20363;-73
2023/07/07 00:41:18;;;;;;;9.00;5.23;;;;;;;14.73;86.28;101720.47;5326325;28;20102;-73
2023/07/07 00:44:08;;;;;;;7.33;4.47;;;;;;;14.74;86.34;101716.97;5325363;28;20031;-73
2023/07/07 00:46:40;;;;;;;6.70;5.03;;;;;;;14.55;86.59;101719.84;5326606;28;20098;-73
2023/07/07 00:49:16;;;;;;;9.00;4.93;;;;;;;14.55;87.25;101718.97;5326278;28;20035;-73
2023/07/07 00:51:47;;;;;;;8.30;4.20;;;;;;;14.56;87.19;101725.97;5326608;28;20036;-72
2023/07/07 00:54:26;;;;;;;6.90;3.77;;;;;;;14.51;88.28;101715.53;5324859;28;20072;-73
2023/07/07 00:56:59;;;;;;;6.32;4.10;;;;;;;14.41;87.89;101713.94;5326128;28;20040;-74
2023/07/07 00:59:41;;;;;;;8.48;3.83;;;;;;;14.34;88.10;101721.00;5325047;28;20059;-73
2023/07/07 01:02:24;;;;;;;7.03;3.75;;;;;;;14.43;88.67;101720.03;5325754;28;20022;-72
2023/07/07 01:04:59;;;;;;;7.35;4.80;;;;;;;14.27;88.35;101723.75;5325999;28;20038;-74
2023/07/07 01:07:51;;;;;;;7.22;4.57;;;;;;;14.34;89.46;101728.88;5325671;28;20487;-74
2023/07/07 01:10:23;;;;;;;8.23;4.32;;;;;;;14.26;89.07;101729.88;5325732;28;20039;-73
2023/07/07 01:12:54;;;;;;;6.10;4.63;;;;;;;14.22;89.34;101726.41;5325982;28;20413;-73
2023/07/07 01:15:30;;;;;;;8.77;4.47;;;;;;;14.21;89.47;101728.16;5325712;28;20474;-74
2023/07/07 01:18:23;;;;;;;8.00;4.63;;;;;;;14.10;89.88;101732.66;5325881;28;20100;-74
2023/07/07 01:21:03;;;;;;;6.78;4.50;;;;;;;14.07;90.43;101726.59;5325571;28;20058;-74
2023/07/07 01:23:59;;;;;;;6.20;4.53;;;;;;;14.12;91.38;101730.03;5326057;28;20486;-74
2023/07/07 01:27:02;;;;;;;8.98;4.38;;;;;;;14.10;91.24;101730.03;5325375;28;20028;-73
2023/07/07 01:30:08;;;;;;;7.95;4.35;;;;;;;14.07;91.17;101724.88;5325683;28;20475;-73
2023/07/07 01:32:42;;;;;;;7.05;4.32;;;;;;;14.00;91.10;101724.06;5325600;28;20050;-73
2023/07/07 01:35:16;;;;;;;5.53;4.00;;;;;;;13.95;91.14;101727.63;5325561;28;20032;-74
2023/07/07 01:37:55;;;;;;;8.35;5.43;;;;;;;13.93;91.71;101724.16;5325583;28;20023;-74
2023/07/07 01:40:54;;;;;;;7.45;4.47;;;;;;;13.92;92.18;101717.19;5325258;28;20024;-73
2023/07/07 01:43:44;;;;;;;7.40;4.82;;;;;;;13.89;92.11;101718.06;5314500;28;20046;-73
2023/07/07 01:46:31;;;;;;;9.35;4.35;;;;;;;13.85;91.89;101717.25;5325613;28;20474;-73
2023/07/07 01:49:19;;;;;;;9.43;4.57;;;;;;;13.81;92.45;101728.66;5324022;28;20032;-73
2023/07/07 01:51:59;;;;;;;6.55;4.60;;;;;;;13.74;91.99;101721.72;5325735;28;20451;-73
2023/07/07 01:54:34;;;;;;;8.77;4.78;;;;;;;13.69;92.47;101723.53;5326175;28;20023;-74
2023/07/07 01:57:06;;;;;;;5.10;4.00;;;;;;;13.52;91.88;101720.22;5329887;28;20120;-73
2023/07/07 01:59:40;;;;;;;;;;;;;;;13.81;90.00;101719.91;5330138;28;20597;-73
2023/07/07 02:02:11;;;;;;;7.00;4.75;;;;;;;13.57;91.60;101715.81;5329597;28;19919;-73
2023/07/07 02:04:43;;;;;;;7.30;4.80;;;;;;;13.54;92.65;101719.34;5329746;28;20462;-73
2023/07/07 02:07:14;;;;;;;8.77;5.30;;;;;;;13.49;92.94;101718.50;5329237;28;20027;-74
2023/07/07 02:09:46;;;;;;;8.80;4.40;;;;;;;13.47;93.09;101720.28;5329552;28;20039;-74
2023/07/07 02:12:17;;;;;;;6.07;4.37;;;;;;;13.47;92.95;101721.13;5329465;28;20028;-73
2023/07/07 02:14:48;;;;;;;9.63;5.00;;;;;;;13.45;93.69;101717.66;5329831;28;20031;-73
2023/07/07 02:17:20;;;;;;;10.20;4.37;;;;;;;13.39;93.95;101719.47;5329430;28;20551;-73
2023/07/07 02:19:51;;;;;;;7.10;4.73;;;;;;;13.29;94.06;101713.44;5329252;28;20027;-74
2023/07/07 02:22:23;;;;;;;7.40;4.73;;;;;;;13.29;94.84;101722.13;5329276;28;20035;-73
2023/07/07 02:24:55;;;;;;;7.10;5.27;;;;;;;13.25;94.78;101722.19;5327954;28;20034;-73
2023/07/07 02:27:26;;;;;;;7.05;5.03;;;;;;;13.20;95.22;101722.25;5329136;28;20463;-74
2023/07/07 02:29:57;;;;;;;7.17;5.30;;;;;;;13.20;95.24;101717.00;5327573;28;20107;-73
2023/07/07 02:32:29;;;;;;;8.00;4.80;;;;;;;13.27;95.99;101713.44;5328896;28;20483;-73
2023/07/07 02:35:02;;;;;;;8.07;5.67;;;;;;;13.03;95.31;101725.00;5328820;28;20028;-73
2023/07/07 02:37:34;;;;;;;7.20;4.78;;;;;;;13.06;95.90;101727.59;5328736;28;20470;-74
2023/07/07 02:40:06;;;;;;;6.27;4.60;;;;;;;12.95;95.71;101724.19;5328963;28;20027;-74
2023/07/07 02:42:38;;;;;;;8.73;5.30;;;;;;;12.97;96.04;101718.94;5328950;28;20114;-75
2023/07/07 02:45:09;;;;;;;8.93;4.40;;;;;;;12.89;96.05;101717.22;5328585;28;20114;-74
2023/07/07 02:47:40;;;;;;;7.53;5.07;;;;;;;12.84;96.39;101719.03;5328838;28;20033;-74
2023/07/07 02:50:12;;;;;;;9.43;5.43;;;;;;;12.71;96.13;101731.31;5328479;28;20059;-73
2023/07/07 02:52:43;;;;;;;8.80;5.00;;;;;;;12.68;96.42;101726.09;5328448;28;20176;-73
2023/07/07 02:55:15;;;;;;;11.03;4.37;;;;;;;12.61;96.43;101728.78;5310451;28;20034;-74
2023/07/07 02:57:46;;;;;;;7.50;5.10;;;;;;;12.58;96.75;101721.81;5328624;28;20107;-74
2023/07/07 03:00:18;;;;;;;14.10;5.70;;;;;;;12.58;97.14;101737.50;5327239;28;20058;-74
2023/07/07 03:02:50;;;;;;;6.97;4.68;;;;;;;12.53;97.10;101734.91;5328542;28;20031;-74
2023/07/07 03:05:22;;;;;;;8.60;5.23;;;;;;;12.49;97.37;101741.03;5328273;28;20030;-74
2023/07/07 03:07:53;;;;;;;7.07;4.73;;;;;;;12.44;97.37;101740.19;5327555;28;20031;-73
2023/07/07 03:10:24;;;;;;;12.13;5.23;;;;;;;12.41;97.66;101737.59;5328341;28;20119;-74
2023/07/07 03:12:56;;;;;;;9.37;5.63;;;;;;;12.35;97.36;101733.28;5328380;27;20040;-74
2023/07/07 03:15:38;;;;;;;8.17;5.77;;;;;;;12.40;97.91;101738.50;5328191;28;20118;-72
2023/07/07 03:18:10;;;;;;;6.88;4.95;;;;;;;12.33;97.89;101742.00;5328324;28;20371;-74
2023/07/07 03:20:48;;;;;;;6.80;5.18;;;;;;;12.24;97.74;101742.91;5328040;28;20019;-74
2023/07/07 03:23:20;;;;;;;7.40;5.20;;;;;;;12.30;98.50;101736.78;5328058;28;20401;-74
2023/07/07 03:25:51;;;;;;;9.27;5.13;;;;;;;12.22;98.93;101740.31;5327966;28;20031;-73
2023/07/07 03:28:22;;;;;;;9.23;5.07;;;;;;;12.26;99.11;101735.94;5327670;28;20042;-74
2023/07/07 03:30:54;;;;;;;6.77;5.17;;;;;;;12.12;98.40;101743.81;5327698;28;20398;-74
2023/07/07 03:33:25;;;;;;;8.53;6.03;;;;;;;12.12;98.43;101742.97;5327639;28;20457;-74
2023/07/07 03:35:56;;;;;;;7.20;4.97;;;;;;;12.11;98.60;101746.47;5326310;28;20035;-74
2023/07/07 03:38:28;;;;;;;6.70;5.40;;;;;;;12.07;98.60;101742.97;5327594;28;20466;-74
2023/07/07 03:40:59;;;;;;;9.40;5.60;;;;;;;12.18;99.43;101745.56;5327713;28;20033;-74
2023/07/07 03:43:33;;;;;;;7.43;5.40;;;;;;;12.05;98.71;101734.28;5328049;28;20042;-74
2023/07/07 03:46:05;;;;;;;10.68;5.75;;;;;;;12.08;99.61;101738.63;5327305;28;20027;-74
2023/07/07 03:48:37;;;;;;;7.25;5.60;;;;;;;12.09;99.35;101736.03;5327928;28;20042;-74
2023/07/07 03:51:09;;;;;;;9.80;6.03;;;;;;;12.07;99.86;101734.28;5327566;28;20462;-73
2023/07/07 03:53:41;;;;;;;9.48;5.72;;;;;;;12.13;100.00;101745.56;5327280;28;20031;-74
2023/07/07 03:56:13;;;;;;;9.63;6.20;;;;;;;12.07;100.00;101742.09;5327438;28;20055;-74
2023/07/07 03:58:45;;;;;;;7.10;6.38;;;;;;;12.01;99.83;101738.66;5327148;28;20158;-74
2023/07/07 04:01:17;;;;;;;8.32;6.25;;;;;;;12.01;100.00;101737.75;5327285;28;20039;-74
2023/07/07 04:03:49;;;;;;;9.48;6.40;;;;;;;12.07;100.00;101735.13;5327074;28;20133;-74
2023/07/07 04:06:20;;;;;;;9.20;6.43;;;;;;;12.05;100.00;101739.50;5326836;28;20522;-74
2023/07/07 04:08:52;;;;;;;7.90;5.97;;;;;;;12.18;100.00;101742.94;5327309;28;20028;-74
2023/07/07 04:11:24;;;;;;;8.30;6.57;;;;;;;12.07;100.00;101740.34;5327074;28;20118;-74
2023/07/07 04:13:55;;;;;;;11.85;6.40;;;;;;;12.09;100.00;101742.97;5327240;28;20084;-74
2023/07/07 04:16:26;;;;;;;11.87;7.37;;;;;;;12.12;100.00;101742.97;5325806;28;20028;-74
2023/07/07 04:18:58;;;;;;;8.20;5.83;;;;;;;12.11;100.00;101754.31;5327010;28;20028;-74
2023/07/07 04:21:30;;;;;;;10.00;6.80;;;;;;;12.21;100.00;101754.25;5326956;28;20051;-73
2023/07/07 04:24:02;;;;;;;9.38;6.25;;;;;;;12.21;100.00;101750.78;5325551;28;20076;-73
2023/07/07 04:26:33;;;;;;;9.98;6.53;;;;;;;12.16;100.00;101756.00;5326678;28;20039;-73
2023/07/07 04:29:05;;;;;;;10.47;6.30;;;;;;;12.23;100.00;101756.84;5326765;28;20027;-74
2023/07/07 04:31:37;;;;;;;8.32;6.97;;;;;;;12.24;100.00;101752.50;5326691;28;20398;-74
2023/07/07 04:34:08;;;;;;;8.83;6.57;;;;;;;12.33;100.00;101753.34;5326808;28;20052;-73
2023/07/07 04:36:40;;;;;;;13.27;6.27;;;;;;;12.32;100.00;101758.56;5326217;28;20035;-74
2023/07/07 04:39:12;;;;;;;11.30;6.40;;;;;;;12.42;100.00;101764.63;5326330;28;20474;-73
2023/07/07 04:41:43;;;;;;;9.90;6.95;;;;;;;12.38;100.00;101755.91;5326317;28;20088;-73
2023/07/07 04:44:15;;;;;;;10.47;6.33;;;;;;;12.42;100.00;101759.41;5326549;28;20421;-74
2023/07/07 04:46:46;;;;;;;13.40;6.67;;;;;;;12.55;100.00;101758.44;5326506;28;20039;-74
2023/07/07 04:49:18;;;;;;;10.80;6.77;;;;;;;12.54;100.00;101751.47;5326407;28;20035;-74
2023/07/07 04:51:49;;;;;;;11.10;6.90;;;;;;;12.58;100.00;101761.06;5326391;28;20462;-73
2023/07/07 04:54:21;;;;;;;9.17;6.83;;;;;;;12.67;100.00;101752.28;5325039;28;20096;-74
2023/07/07 04:56:53;;;;;;;9.73;6.43;;;;;;;12.86;99.97;101753.03;5326380;28;20063;-74
2023/07/07 04:59:26;;;;;;;13.48;6.82;;;;;;;12.86;99.03;101753.88;5325975;28;20363;-74
2023/07/07 05:01:57;;;;;;;19.15;7.00;;;;;;;12.97;98.99;101759.06;5326293;28;20363;-74
2023/07/07 05:04:29;;;;;;;8.67;5.80;;;;;;;13.10;98.15;101752.84;5324964;28;20105;-74
2023/07/07 05:07:00;;;;;;;9.63;6.10;;;;;;;13.18;97.97;101758.03;5325425;28;20031;-74
2023/07/07 05:09:32;;;;;;;7.83;5.50;;;;;;;13.26;96.52;101760.59;5325857;28;20028;-74
2023/07/07 05:12:04;;;;;;;7.40;5.67;;;;;;;13.42;95.57;101762.22;5326165;28;20036;-74
2023/07/07 05:14:35;;;;;;;9.60;6.67;;;;;;;13.52;95.75;101767.38;5326044;28;20474;-73
2023/07/07 05:17:07;;;;;;;6.83;5.00;;;;;;;13.63;95.51;101762.91;5326125;28;20101;-74
2023/07/07 05:19:38;;;;;;;11.97;5.50;;;;;;;13.77;94.02;101762.78;5326010;28;20176;-74
2023/07/07 05:22:09;;;;;;;11.43;6.20;;;;;;;13.84;94.44;101757.44;5326002;28;20109;-74
2023/07/07 05:24:41;;;;;;;11.40;5.90;;;;;;;13.96;92.35;101766.03;5324690;28;20030;-75
2023/07/07 05:27:13;;;;;;;9.53;5.10;;;;;;;14.07;91.97;101766.81;5325875;28;20028;-74
2023/07/07 05:29:45;;;;;;;11.65;5.55;;;;;;;14.19;91.12;101766.66;5325168;28;20496;-75
2023/07/07 05:32:16;;;;;;;11.60;5.40;;;;;;;14.33;88.95;101771.75;5325387;28;20056;-74
2023/07/07 05:34:50;;;;;;;12.63;5.20;;;;;;;14.42;88.16;101768.13;5326311;28;20092;-73
2023/07/07 05:37:21;;;;;;;9.57;5.22;;;;;;;14.49;89.16;101769.78;5325130;28;20466;-74
2023/07/07 05:39:53;;;;;;;14.43;5.43;;;;;;;14.62;88.19;101765.28;5324347;28;20035;-74
2023/07/07 05:42:25;;;;;;;10.23;5.17;;;;;;;14.65;88.58;101764.34;5325735;28;20034;-74
2023/07/07 05:44:56;;;;;;;8.20;4.72;;;;;;;14.77;86.97;101772.91;5324738;28;20032;-74
2023/07/07 05:47:28;;;;;;;8.80;5.67;;;;;;;14.87;87.12;101772.78;5325369;28;20032;-75
2023/07/07 05:49:59;;;;;;;9.40;5.37;;;;;;;14.96;86.59;101775.28;5324848;28;20028;-75
2023/07/07 05:52:30;;;;;;;11.60;5.00;;;;;;;15.08;84.78;101777.69;5325649;28;20035;-75
2023/07/07 05:55:03;;;;;;;11.10;5.80;;;;;;;15.20;83.51;101779.28;5323764;28;20059;-75
2023/07/07 05:57:35;;;;;;;9.15;5.15;;;;;;;15.23;83.95;101779.22;5325032;28;20032;-75
2023/07/07 06:00:08;;;;;;;9.83;5.70;;;;;;;15.32;83.36;101772.94;5323597;28;20032;-75
2023/07/07 06:02:39;;;;;;;9.85;4.88;;;;;;;15.45;83.46;101781.47;5324279;28;20133;-75
2023/07/07 06:05:11;;;;;;;8.23;4.33;;;;;;;15.58;81.95;101785.63;5324794;28;20522;-75
2023/07/07 06:07:42;;;;;;;11.87;5.47;;;;;;;15.66;81.78;101782.88;5323432;28;20039;-74
2023/07/07 06:10:13;;;;;;;10.73;5.27;;;;;;;15.76;82.52;101778.31;5324754;28;20031;-75
2023/07/07 06:12:45;;;;;;;8.43;5.27;;;;;;;15.89;81.47;101778.97;5325081;28;20489;-74
2023/07/07 06:15:17;;;;;;;7.77;5.17;;;;;;;15.97;79.74;101774.44;5324658;28;20046;-74
2023/07/07 06:17:50;;;;;;;11.77;5.47;;;;;;;16.05;79.02;101780.41;5325029;28;20493;-75
2023/07/07 06:20:21;;;;;;;9.43;4.57;;;;;;;16.12;79.33;101782.03;5318818;28;21177;-75
2023/07/07 06:22:54;;;;;;;8.80;5.83;;;;;;;16.21;78.91;101780.97;5306517;28;20020;-75
2023/07/07 06:25:25;;;;;;;9.80;4.80;;;;;;;16.31;78.43;101777.25;5302658;28;20036;-75
2023/07/07 06:27:57;;;;;;;8.17;4.67;;;;;;;16.42;77.52;101771.75;5318350;28;20486;-74
2023/07/07 06:30:28;;;;;;;9.40;5.20;;;;;;;16.60;75.71;101778.41;5324033;28;20406;-75
2023/07/07 06:33:02;;;;;;;13.40;5.68;;;;;;;16.67;74.92;101781.75;5323993;28;20422;-74
2023/07/07 06:35:34;;;;;;;11.85;5.07;;;;;;;16.83;74.04;101788.41;5324532;28;20039;-75
2023/07/07 06:38:05;;;;;;;8.13;4.27;;;;;;;16.89;73.97;101790.09;5324004;28;20036;-75
2023/07/07 06:40:37;;;;;;;12.80;4.87;;;;;;;16.99;74.58;101786.31;5323276;28;20081;-75
2023/07/07 06:43:08;;;;;;;8.97;4.07;;;;;;;17.13;73.73;101788.63;5326475;28;20039;-73
2023/07/07 06:45:40;;;;;;;10.87;3.87;;;;;;;17.26;72.75;101789.22;5328905;28;20032;-74
2023/07/07 06:48:11;;;;;;;7.57;4.30;;;;;;;17.37;69.72;101796.81;5327556;28;20041;-74
2023/07/07 06:50:42;;;;;;;6.80;3.67;;;;;;;17.43;70.01;101800.16;5328841;28;20032;-74
2023/07/07 06:53:14;;;;;;;6.60;3.67;;;;;;;17.53;69.52;101799.94;5327939;28;20031;-74
2023/07/07 06:55:45;;;;;;;8.23;3.87;;;;;;;17.70;70.24;101802.16;5328363;28;20426;-74
2023/07/07 06:58:22;;;;;;;7.00;3.67;;;;;;;17.74;69.80;101804.66;5326636;28;20528;-72
2023/07/07 07:00:53;;;;;;;8.63;3.90;;;;;;;17.95;66.33;101797.97;5327261;28;20374;-74
2023/07/07 07:03:24;;;;;;;8.10;3.90;;;;;;;17.97;66.52;101800.56;5326663;28;20035;-74
2023/07/07 07:05:56;;;;;;;8.83;4.00;;;;;;;18.12;64.53;101805.41;5326365;28;20027;-74
2023/07/07 07:08:27;;;;;;;5.97;3.77;;;;;;;18.28;64.22;101802.34;5327734;28;20039;-74
2023/07/07 07:11:00;;;;;;;9.23;3.10;;;;;;;18.46;65.62;101804.44;5328382;28;20108;-75
2023/07/07 07:13:31;;;;;;;6.75;3.08;;;;;;;18.50;65.09;101802.56;5326426;28;20028;-75
2023/07/07 07:16:03;;;;;;;7.93;4.07;;;;;;;18.71;66.00;101804.56;5328341;27;20493;-74
2023/07/07 07:18:34;;;;;;;5.53;3.10;;;;;;;18.80;63.41;101807.84;5325774;28;20102;-74
2023/07/07 07:21:06;;;;;;;5.23;3.33;;;;;;;18.89;63.76;101808.44;5327854;27;20310;-74
2023/07/07 07:23:37;;;;;;;6.97;3.40;;;;;;;18.92;63.45;101807.50;5326337;28;20028;-75
2023/07/07 07:26:09;;;;;;;9.17;3.70;;;;;;;19.05;60.59;101806.19;5328167;28;20032;-74
2023/07/07 07:28:43;;;;;;;7.00;3.00;;;;;;;19.28;59.33;101809.84;5327166;28;20024;-74
2023/07/07 07:31:15;;;;;;;6.13;2.83;;;;;;;19.30;60.25;101803.63;5327951;28;20122;-74
2023/07/07 07:33:52;;;;;;;5.22;2.70;;;;;;;19.40;59.98;101803.28;5327176;28;20064;-73
2023/07/07 07:36:23;;;;;;;6.82;3.40;;;;;;;19.54;61.50;101806.34;5325769;28;20123;-74
2023/07/07 07:38:55;;;;;;;7.60;3.50;;;;;;;19.56;60.16;101803.63;5327211;28;20378;-74
2023/07/07 07:41:26;;;;;;;4.13;2.73;;;;;;;19.65;59.03;101811.25;5327459;28;20118;-74
2023/07/07 07:43:57;;;;;;;8.17;3.57;;;;;;;19.96;57.72;101816.34;5327022;28;20028;-74
2023/07/07 07:46:29;;;;;;;5.70;2.70;;;;;;;19.98;58.15;101806.59;5323839;28;20035;-73
2023/07/07 07:49:00;;;;;;;6.40;2.93;;;;;;;20.04;57.48;101801.09;5305655;28;20037;-74
2023/07/07 07:51:32;;;;;;;6.93;3.00;;;;;;;20.17;57.97;101812.09;5306409;28;20115;-74
2023/07/07 07:54:05;;;;;;;7.23;2.77;;;;;;;20.22;58.32;101814.53;5305395;28;20032;-74
2023/07/07 07:56:37;;;;;;;6.30;2.88;;;;;;;20.31;56.17;101814.22;5307802;28;20551;-74
2023/07/07 07:59:08;;;;;;;6.63;2.75;;;;;;;20.46;55.43;101812.75;5307006;28;20086;-75
2023/07/07 08:01:40;;;;;;;7.57;2.90;;;;;;;20.54;55.94;101817.78;5306081;28;20056;-73
2023/07/07 08:04:12;;;;;;;8.43;3.25;;;;;;;20.70;55.73;101811.00;5305923;28;20266;-74
2023/07/07 08:06:43;;;;;;;4.60;2.67;;;;;;;20.78;54.39;101810.69;5307138;28;20028;-75
2023/07/07 08:09:15;;;;;;;5.33;2.70;;;;;;;20.84;54.28;101823.72;5306637;28;20111;-74
2023/07/07 08:11:46;;;;;;;9.30;3.00;;;;;;;20.90;55.66;101820.81;5311716;28;20036;-74
2023/07/07 08:14:20;;;;;;;6.50;2.87;;;;;;;21.07;55.34;101825.44;5310399;28;20195;-74
2023/07/07 08:16:51;;;;;;;5.65;2.97;;;;;;;21.10;54.91;101822.66;5306133;28;20119;-74
2023/07/07 08:19:23;;;;;;;6.67;2.80;;;;;;;21.26;55.15;101817.59;5304856;28;20535;-74
2023/07/07 08:21:54;;;;;;;6.63;3.00;;;;;;;21.45;53.99;101811.53;5305721;28;20463;-75
2023/07/07 08:24:27;;;;;;;5.17;2.80;;;;;;;21.45;52.49;101822.16;5304769;28;20061;-74
2023/07/07 08:26:58;;;;;;;;;;;;;;;21.56;53.86;101821.69;5306067;28;20036;-74
2023/07/07 08:29:29;;;;;;;6.03;2.83;;;;;;;21.71;54.60;101820.22;5304716;28;19941;-76
2023/07/07 08:32:01;;;;;;;6.33;2.73;;;;;;;21.73;52.60;101819.19;5310644;28;20543;-74
2023/07/07 08:34:32;;;;;;;5.23;2.37;;;;;;;21.86;53.42;101819.53;5317428;28;20082;-75
2023/07/07 08:37:04;;;;;;;7.73;2.93;;;;;;;21.87;51.98;101818.59;5326334;28;20047;-75
2023/07/07 08:39:37;;;;;;;9.48;3.00;;;;;;;21.99;52.32;101819.84;5325593;28;20422;-74
2023/07/07 08:42:28;;;;;;;6.80;3.28;;;;;;;22.07;51.90;101820.38;5326290;28;20076;-74
2023/07/07 08:45:03;;;;;;;5.40;2.75;;;;;;;22.09;51.80;101810.56;5325306;27;20023;-73
2023/07/07 08:47:53;;;;;;;9.32;3.15;;;;;;;22.24;52.82;101819.63;5325182;28;20038;-73
2023/07/07 08:50:24;;;;;;;5.07;2.78;;;;;;;22.43;50.31;101814.34;5325432;28;20474;-74
2023/07/07 08:53:34;;;;;;;5.37;2.30;;;;;;;22.51;50.00;101811.34;5326363;28;20038;-75
2023/07/07 08:56:15;;;;;;;7.30;2.92;;;;;;;22.51;46.05;101817.50;5326200;28;20026;-75
2023/07/07 08:59:01;;;;;;;5.80;2.67;;;;;;;22.67;47.83;101815.00;5325654;28;20485;-74
2023/07/07 09:01:47;;;;;;;4.70;2.28;;;;;;;22.64;46.84;101815.16;5325936;28;20080;-74
2023/07/07 09:04:36;;;;;;;6.07;2.50;;;;;;;22.66;47.62;101815.94;5324714;28;20035;-73
2023/07/07 09:07:29;;;;;;;5.47;3.45;;;;;;;22.87;47.65;101815.84;5325609;28;20031;-74
2023/07/07 09:10:31;;;;;;;4.78;2.70;;;;;;;23.04;47.94;101815.00;5323812;28;20027;-75
2023/07/07 09:13:10;;;;;;;2.58;2.03;;;;;;;23.03;47.20;101814.16;5325889;28;20042;-74
2023/07/07 09:15:52;;;;;;;6.55;2.60;;;;;;;23.47;45.89;101810.25;5325624;28;20032;-74
2023/07/07 09:18:32;;;;;;;8.45;2.90;;;;;;;23.38;45.87;101816.91;5324870;28;20538;-74
2023/07/07 09:21:12;;;;;;;4.03;2.22;;;;;;;23.57;46.87;101807.97;5325668;28;20035;-74
2023/07/07 09:23:45;;;;;;;3.53;2.30;;;;;;;23.73;46.58;101811.59;5324754;28;20027;-74
2023/07/07 09:26:28;;;;;;;8.07;2.65;;;;;;;23.58;43.25;101809.69;5324265;28;20039;-75
2023/07/07 09:29:06;;;;;;;4.53;2.53;;;;;;;23.60;42.45;101808.69;5325083;28;20024;-75
2023/07/07 09:31:41;;;;;;;4.40;2.22;;;;;;;23.77;40.43;101812.28;5324494;28;20073;-74
2023/07/07 09:34:14;;;;;;;6.68;2.65;;;;;;;23.75;41.92;101804.38;5324829;28;20082;-74
2023/07/07 09:36:51;;;;;;;4.05;2.53;;;;;;;23.90;42.07;101800.06;5324822;28;20028;-77
2023/07/07 09:39:38;;;;;;;5.60;2.75;;;;;;;24.17;41.94;101804.88;5324805;28;20027;-74
2023/07/07 09:42:25;;;;;;;6.07;2.83;;;;;;;24.12;41.35;101798.94;5324108;28;20030;-74
2023/07/07 09:45:12;;;;;;;4.90;3.00;;;;;;;24.22;43.60;101794.81;5324858;28;20073;-74
2023/07/07 09:48:02;;;;;;;4.90;2.47;;;;;;;24.20;41.08;101796.72;5325616;28;20466;-74
2023/07/07 09:50:51;;;;;;;5.25;2.67;;;;;;;24.42;43.10;101798.19;5321279;28;20038;-74
2023/07/07 09:53:29;;;;;;;7.13;3.15;;;;;;;24.66;41.04;101796.00;5314556;28;20562;-73
2023/07/07 09:56:01;;;;;;;3.80;2.63;;;;;;;24.82;43.01;101795.97;5314179;28;20467;-74
2023/07/07 09:58:39;;;;;;;4.47;2.67;;;;;;;24.78;40.32;101791.75;5312956;28;20024;-74
2023/07/07 10:01:10;;;;;;;4.55;2.28;;;;;;;24.82;37.46;101793.31;5316060;28;20019;-74
2023/07/07 10:04:04;;;;;;;4.72;2.58;;;;;;;24.81;38.25;101788.91;5323646;28;20028;-74
2023/07/07 10:06:47;;;;;;;5.40;2.22;;;;;;;24.98;38.52;101790.63;5313920;28;20020;-73
2023/07/07 10:09:19;;;;;;;3.95;2.38;;;;;;;25.08;37.38;101790.03;5313724;28;20063;-73
2023/07/07 10:11:50;;;;;;;4.43;2.43;;;;;;;25.64;41.13;101789.44;5318007;28;20419;-74
2023/07/07 10:14:25;;;;;;;5.90;2.40;;;;;;;26.24;35.56;101779.53;5324575;28;20284;-73
2023/07/07 10:17:09;;;;;;;5.50;2.65;;;;;;;27.08;37.24;101784.78;5326681;28;20122;-73
2023/07/07 10:19:50;;;;;;;9.02;2.78;;;;;;;27.67;37.37;101772.78;5328660;28;20027;-74
2023/07/07 10:22:22;;;;;;;5.35;2.30;;;;;;;28.55;32.84;101769.25;5329064;28;20036;-74
2023/07/07 10:24:53;;;;;;;6.00;2.33;;;;;;;29.04;31.07;101776.31;5328030;28;20389;-75
2023/07/07 10:27:26;;;;;;;4.47;2.77;;;;;;;30.01;30.46;101768.00;5327881;28;20063;-74
2023/07/07 10:30:04;;;;;;;5.70;2.75;;;;;;;29.92;33.56;101772.28;5328433;28;20274;-74
2023/07/07 10:32:35;;;;;;;5.10;2.60;;;;;;;30.37;28.16;101771.41;5328997;28;20066;-74
2023/07/07 10:35:07;;;;;;;;;;;;;;;31.15;31.09;101766.75;5328432;28;20028;-74
2023/07/07 10:37:39;;;;;;;6.22;2.03;;;;;;;30.69;31.31;101758.00;5328498;28;19922;-74
2023/07/07 10:40:15;;;;;;;;;;;;;;;31.98;30.78;101772.22;5327436;28;20515;-74
2023/07/07 10:42:50;;;;;;;6.53;2.25;;;;;;;31.44;30.46;101766.09;5328900;28;19947;-75
2023/07/07 10:45:22;;;;;;;4.93;2.78;;;;;;;31.39;27.73;101757.56;5328143;28;20019;-73
2023/07/07 10:47:54;;;;;;;6.00;2.58;;;;;;;31.91;27.99;101760.28;5328840;28;20478;-74
2023/07/07 10:50:30;;;;;;;5.50;3.05;;;;;;;31.89;27.06;101763.09;5328054;28;20032;-74
2023/07/07 10:53:39;;;;;;;5.60;2.60;;;;;;;32.62;28.06;101764.72;5326919;28;20020;-75
2023/07/07 10:56:10;;;;;;;3.67;2.78;;;;;;;32.21;25.93;101755.88;5328655;28;20455;-74
2023/07/07 10:59:12;;;;;;;6.82;2.90;;;;;;;32.81;28.32;101761.22;5327960;28;20024;-74
2023/07/07 11:02:20;;;;;;;5.50;2.58;;;;;;;33.88;24.92;101758.34;5328130;28;20106;-74
2023/07/07 11:05:05;;;;;;;6.10;2.63;;;;;;;33.28;27.97;101747.88;5327591;28;20089;-74
2023/07/07 11:07:47;;;;;;;4.07;2.55;;;;;;;33.51;26.07;101745.66;5327998;28;20426;-74
2023/07/07 11:10:37;;;;;;;;;;;;;;;35.65;23.78;101755.09;5327972;28;20617;-74
2023/07/07 11:13:15;;;;;;;4.93;2.60;;;;;;;33.78;27.35;101744.03;5327388;28;19907;-74
2023/07/07 11:16:29;;;;;;;4.78;2.95;;;;;;;34.43;26.11;101748.53;5327894;28;20024;-73
2023/07/07 11:19:09;;;;;;;6.85;3.00;;;;;;;34.65;23.92;101739.13;5261444;28;20040;-74
2023/07/07 11:22:09;;;;;;;6.47;2.88;;;;;;;34.98;25.95;101747.53;5321026;28;20050;-74
2023/07/07 11:24:54;;;;;;;2.75;2.40;;;;;;;34.51;22.80;101746.75;5327550;28;20531;-75
2023/07/07 11:27:41;;;;;;;6.80;3.05;;;;;;;34.96;25.05;101744.16;5318380;28;20077;-74
2023/07/07 11:30:26;;;;;;;5.30;3.15;;;;;;;34.84;22.71;101730.84;5305660;28;20038;-74
2023/07/07 11:33:00;;;;;;;6.78;2.92;;;;;;;35.22;21.10;101734.16;5307040;28;20105;-73
2023/07/07 11:35:56;;;;;;;7.38;3.65;;;;;;;35.30;22.21;101738.81;5323055;28;20107;-75
2023/07/07 11:38:43;;;;;;;5.50;3.33;;;;;;;36.04;21.35;101733.78;5305185;28;20485;-74
2023/07/07 11:41:29;;;;;;;4.93;3.10;;;;;;;36.76;20.93;101729.69;5306397;28;20089;-75
2023/07/07 11:44:32;;;;;;;5.20;2.70;;;;;;;36.74;23.09;101732.59;5305859;28;20483;-75
2023/07/07 11:47:47;;;;;;;6.05;2.78;;;;;;;37.69;23.31;101725.66;5306664;28;20460;-76
2023/07/07 11:50:27;;;;;;;4.90;2.42;;;;;;;36.84;22.97;101725.13;5240231;28;20125;-74
2023/07/07 11:53:40;;;;;;;4.32;2.42;;;;;;;37.82;21.68;101730.56;5241178;28;20029;-76
2023/07/07 11:56:41;;;;;;;5.80;2.88;;;;;;;37.66;20.39;101735.03;5297694;28;20093;-74
2023/07/07 11:59:22;;;;;;;6.55;2.85;;;;;;;37.67;19.97;101736.69;5305499;28;20040;-75
2023/07/07 12:01:57;;;;;;;5.53;2.90;;;;;;;37.28;19.29;101725.78;5306080;28;20379;-75
2023/07/07 12:04:39;;;;;;;3.63;2.72;;;;;;;37.98;16.13;101727.75;5304419;28;20094;-75